Terminal Aerodrome Forecast
Issued by NWS Atlanta, GA

Home | Current Version | Previous Version | Text Only | Print | Product List | Glossary On
Versions: 1 2 3 4 5 6 7 8 9 10 11 12 13 14 15 16 17 18 19 20 21 22 23 24 25 26 27 28 29 30
000
FTUS42 KFFC 042143 AAA
TAFCSG
TAF AMD
KCSG 042143Z 0422/0518 21005KT P6SM VCSH SCT040 BKN100
      TEMPO 0422/0501 VRB15G25KT 3SM TSRA BKN025CB
     FM050100 17005KT 6SM SHRA BKN045
     FM050300 30008KT P6SM BKN040
     FM050900 28005KT 6SM BR BKN035
     FM051500 21004KT P6SM BKN045=

USA.gov is the U.S. government's official web portal to all federal, state and local government web resources and services.